createdAt,value
2023-10-22T00:00:54.748Z,97308.91
2023-10-22T00:02:59.823Z,97312.22
2023-10-22T00:05:05.005Z,97315.72
2023-10-22T00:07:11.053Z,97313.19
2023-10-22T00:09:15.799Z,97310.56
2023-10-22T00:11:20.596Z,97308.06
2023-10-22T00:13:28.125Z,97318.31
2023-10-22T00:15:32.811Z,97313.94
2023-10-22T00:17:37.699Z,97317.38
2023-10-22T00:19:42.721Z,97313.72
2023-10-22T00:21:47.715Z,97312.03
2023-10-22T00:23:52.674Z,97313.81
2023-10-22T00:25:55.799Z,97318.31
2023-10-22T00:28:00.450Z,97320.84
2023-10-22T00:30:08.753Z,97319.66
2023-10-22T00:32:13.569Z,97321.25
2023-10-22T00:34:15.789Z,97322.91
2023-10-22T00:36:20.912Z,97323.66
2023-10-22T00:38:26.631Z,97338.50
2023-10-22T00:40:31.547Z,97335.88
2023-10-22T00:42:36.662Z,97334.22
2023-10-22T00:44:41.874Z,97333.47
2023-10-22T00:46:50.145Z,97339.75
2023-10-22T00:48:55.248Z,97340.50
2023-10-22T00:51:00.417Z,97330.97
2023-10-22T00:53:06.275Z,97331.16
2023-10-22T00:55:14.948Z,97339.34
2023-10-22T00:57:19.672Z,97334.75
2023-10-22T00:59:25.190Z,97338.50
2023-10-22T01:01:30.490Z,97339.63
2023-10-22T01:03:39.194Z,97340.66
2023-10-22T01:05:44.163Z,97341.69
2023-10-22T01:07:50.259Z,97342.84
2023-10-22T01:09:52.319Z,97342.94
2023-10-22T01:12:03.983Z,97351.81
2023-10-22T01:14:08.802Z,97352.03
2023-10-22T01:16:13.824Z,97354.84
2023-10-22T01:18:18.821Z,97350.78
2023-10-22T01:20:26.761Z,97345.75
2023-10-22T01:22:31.898Z,97348.56
2023-10-22T01:24:39.348Z,97343.72
2023-10-22T01:26:44.529Z,97352.63
2023-10-22T01:28:49.528Z,97359.72
2023-10-22T01:30:51.659Z,97363.44
2023-10-22T01:32:56.568Z,97356.75
2023-10-22T01:35:02.659Z,97366.47
2023-10-22T01:37:07.305Z,97370.09
2023-10-22T01:39:16.720Z,97372.91
2023-10-22T01:41:25.201Z,97378.44
2023-10-22T01:43:27.266Z,97378.00
2023-10-22T01:45:33.970Z,97382.97
2023-10-22T01:47:39.558Z,97386.59
2023-10-22T01:49:44.478Z,97397.00
2023-10-22T01:51:50.210Z,97389.75
2023-10-22T01:53:55.391Z,97397.66
2023-10-22T01:56:00.147Z,97397.09
2023-10-22T01:58:07.680Z,97395.63
2023-10-22T02:00:13.603Z,97393.19
2023-10-22T02:02:21.348Z,97395.16
2023-10-22T02:04:26.387Z,97402.50
2023-10-22T02:06:31.165Z,97410.44
2023-10-22T02:08:36.047Z,97406.16
2023-10-22T02:10:40.960Z,97412.41
2023-10-22T02:12:45.850Z,97422.00
2023-10-22T02:14:53.488Z,97420.88
2023-10-22T02:16:58.373Z,97419.03
2023-10-22T02:19:03.022Z,97411.91
2023-10-22T02:21:06.278Z,97416.94
2023-10-22T02:23:11.140Z,97418.84
2023-10-22T02:25:16.877Z,97424.13
2023-10-22T02:27:21.603Z,97418.09
2023-10-22T02:29:27.480Z,97416.41
2023-10-22T02:31:35.264Z,97419.09
2023-10-22T02:33:40.429Z,97425.25
2023-10-22T02:35:45.969Z,97431.50
2023-10-22T02:37:50.976Z,97426.38
2023-10-22T02:39:55.625Z,97433.63
2023-10-22T02:42:00.850Z,97435.47
2023-10-22T02:44:05.774Z,97434.63
2023-10-22T02:46:11.616Z,97438.84
2023-10-22T02:48:19.330Z,97431.75
2023-10-22T02:50:21.583Z,97434.09
2023-10-22T02:52:26.611Z,97440.91
2023-10-22T02:54:31.590Z,97430.28
2023-10-22T02:56:36.261Z,97432.91
2023-10-22T02:58:42.454Z,97441.81
2023-10-22T03:00:47.908Z,97439.13
2023-10-22T03:02:53.130Z,97438.19
2023-10-22T03:04:58.478Z,97445.94
2023-10-22T03:07:03.182Z,97443.16
2023-10-22T03:09:08.744Z,97438.69
2023-10-22T03:11:18.303Z,97445.63
2023-10-22T03:13:23.134Z,97440.34
2023-10-22T03:15:27.920Z,97435.22
2023-10-22T03:17:34.043Z,97433.47
2023-10-22T03:19:41.525Z,97434.28
2023-10-22T03:21:49.511Z,97431.69
2023-10-22T03:23:54.367Z,97431.78
2023-10-22T03:26:07.767Z,97436.25
2023-10-22T03:28:14.784Z,97438.13
2023-10-22T03:30:20.552Z,97434.00
2023-10-22T03:32:25.768Z,97435.06
2023-10-22T03:34:30.598Z,97437.81
2023-10-22T03:36:35.463Z,97438.91
2023-10-22T03:38:43.652Z,97447.03
2023-10-22T03:40:48.458Z,97443.94
2023-10-22T03:42:53.455Z,97452.22
2023-10-22T03:44:58.287Z,97456.69
2023-10-22T03:47:04.547Z,97457.78
2023-10-22T03:49:09.754Z,97457.78
2023-10-22T03:51:14.775Z,97462.97
2023-10-22T03:53:16.945Z,97464.69
2023-10-22T03:55:28.943Z,97458.53
2023-10-22T03:57:33.731Z,97466.34
2023-10-22T03:59:38.578Z,97461.25
2023-10-22T04:01:43.517Z,97465.34
2023-10-22T04:03:48.487Z,97463.47
2023-10-22T04:05:57.617Z,97468.50
2023-10-22T04:08:02.481Z,97468.41
2023-10-22T04:10:11.474Z,97467.31
2023-10-22T04:12:19.128Z,97471.59
2023-10-22T04:14:24.104Z,97463.19
2023-10-22T04:16:28.980Z,97461.78
2023-10-22T04:18:34.375Z,97460.03
2023-10-22T04:20:36.872Z,97454.06
2023-10-22T04:22:42.305Z,97460.38
2023-10-22T04:24:47.094Z,97460.56
2023-10-22T04:26:52.051Z,97460.91
2023-10-22T04:29:00.060Z,97469.69
2023-10-22T04:31:04.813Z,97468.28
2023-10-22T04:33:10.120Z,97465.84
2023-10-22T04:35:15.192Z,97471.13
2023-10-22T04:37:21.176Z,97467.03
2023-10-22T04:39:25.956Z,97469.75
2023-10-22T04:41:30.773Z,97468.88
2023-10-22T04:43:35.466Z,97478.47
2023-10-22T04:45:49.201Z,97478.47
2023-10-22T04:47:54.326Z,97480.31
2023-10-22T04:49:56.555Z,97484.78
2023-10-22T04:52:01.341Z,97478.94
2023-10-22T04:54:06.344Z,97486.81
2023-10-22T04:56:11.062Z,97486.88
2023-10-22T04:58:15.961Z,97492.09
2023-10-22T05:00:21.170Z,97496.28
2023-10-22T05:02:28.978Z,97502.38
2023-10-22T05:04:31.409Z,97511.03
2023-10-22T05:06:36.225Z,97510.19
2023-10-22T05:08:41.320Z,97516.31
2023-10-22T05:10:46.136Z,97515.53
2023-10-22T05:12:50.811Z,97516.47
2023-10-22T05:14:55.730Z,97521.78
2023-10-22T05:17:00.904Z,97524.47
2023-10-22T05:19:10.089Z,97527.06
2023-10-22T05:21:15.427Z,97535.81
2023-10-22T05:23:21.323Z,97535.00
2023-10-22T05:25:26.042Z,97540.19
2023-10-22T05:27:30.682Z,97543.72
2023-10-22T05:29:37.351Z,97541.28
2023-10-22T05:31:42.330Z,97548.25
2023-10-22T05:33:47.411Z,97554.41
2023-10-22T05:35:54.852Z,97559.78
2023-10-22T05:37:59.658Z,97558.09
2023-10-22T05:40:05.781Z,97555.41
2023-10-22T05:42:10.984Z,97552.03
2023-10-22T05:44:15.694Z,97556.47
2023-10-22T05:46:20.622Z,97556.47
2023-10-22T05:48:25.483Z,97568.59
2023-10-22T05:50:30.215Z,97563.56
2023-10-22T05:52:37.536Z,97576.75
2023-10-22T05:54:43.610Z,97573.56
2023-10-22T05:56:48.472Z,97571.84
2023-10-22T05:58:53.211Z,97574.56
2023-10-22T06:00:55.319Z,97582.53
2023-10-22T06:03:00.131Z,97592.78
2023-10-22T06:05:17.324Z,97592.78
2023-10-22T06:07:27.951Z,97598.81
2023-10-22T06:09:36.011Z,97601.44
2023-10-22T06:11:40.773Z,97610.16
2023-10-22T06:13:45.696Z,97608.56
2023-10-22T06:15:50.561Z,97617.31
2023-10-22T06:17:55.953Z,97620.91
2023-10-22T06:20:01.227Z,97621.75
2023-10-22T06:22:06.229Z,97619.16
2023-10-22T06:24:11.680Z,97626.03
2023-10-22T06:26:19.672Z,97632.94
2023-10-22T06:28:24.691Z,97634.59
2023-10-22T06:30:29.811Z,97630.25
2023-10-22T06:32:34.913Z,97625.97
2023-10-22T06:34:39.995Z,97634.50
2023-10-22T06:36:45.828Z,97629.72
2023-10-22T06:38:51.127Z,97634.94
2023-10-22T06:40:56.013Z,97644.59
2023-10-22T06:43:03.875Z,97647.84
2023-10-22T06:45:09.783Z,97650.41
2023-10-22T06:47:14.490Z,97650.22
2023-10-22T06:49:19.567Z,97656.28
2023-10-22T06:51:24.373Z,97658.72
2023-10-22T06:53:29.254Z,97662.91
2023-10-22T06:55:34.397Z,97665.38
2023-10-22T06:57:40.100Z,97660.09
2023-10-22T06:59:51.096Z,97669.47
2023-10-22T07:01:55.785Z,97669.31
2023-10-22T07:04:01.781Z,97665.81
2023-10-22T07:06:08.700Z,97662.25
2023-10-22T07:08:13.570Z,97659.50
2023-10-22T07:10:18.954Z,97657.81
2023-10-22T07:12:24.161Z,97668.25
2023-10-22T07:14:28.995Z,97673.34
2023-10-22T07:16:36.249Z,97676.81
2023-10-22T07:18:41.100Z,97682.78
2023-10-22T07:20:46.181Z,97682.59
2023-10-22T07:22:50.883Z,97685.97
2023-10-22T07:24:55.651Z,97687.47
2023-10-22T07:26:57.779Z,97685.56
2023-10-22T07:29:02.494Z,97686.25
2023-10-22T07:31:07.430Z,97684.31
2023-10-22T07:33:14.806Z,97690.19
2023-10-22T07:35:19.635Z,97688.19
2023-10-22T07:37:24.353Z,97685.41
2023-10-22T07:39:29.139Z,97693.00
2023-10-22T07:41:33.863Z,97690.09
2023-10-22T07:43:38.952Z,97696.84
2023-10-22T07:45:41.124Z,97693.13
2023-10-22T07:47:45.982Z,97692.25
2023-10-22T07:49:57.180Z,97690.19
2023-10-22T07:52:04.549Z,97694.22
2023-10-22T07:54:09.969Z,97695.75
2023-10-22T07:56:15.372Z,97699.78
2023-10-22T07:58:20.808Z,97699.53
2023-10-22T08:00:27.101Z,97697.59
2023-10-22T08:02:32.115Z,97699.19
2023-10-22T08:04:37.469Z,97714.44
2023-10-22T08:06:45.060Z,97708.84
2023-10-22T08:08:49.819Z,97706.72
2023-10-22T08:10:54.527Z,97709.75
2023-10-22T08:12:59.303Z,97706.88
2023-10-22T08:15:04.089Z,97708.19
2023-10-22T08:17:09.719Z,97708.78
2023-10-22T08:19:14.401Z,97704.13
2023-10-22T08:21:19.250Z,97700.22
2023-10-22T08:23:26.929Z,97703.41
2023-10-22T08:25:31.549Z,97697.81
2023-10-22T08:27:37.063Z,97700.25
2023-10-22T08:29:41.892Z,97699.13
2023-10-22T08:31:46.639Z,97709.25
2023-10-22T08:33:48.848Z,97701.88
2023-10-22T08:35:53.570Z,97705.78
2023-10-22T08:37:58.375Z,97708.88
2023-10-22T08:40:08.799Z,97699.16
2023-10-22T08:42:18.359Z,97703.94
2023-10-22T08:44:24.373Z,97704.50
2023-10-22T08:46:29.150Z,97709.22
2023-10-22T08:48:35.144Z,97708.00
2023-10-22T08:50:41.176Z,97704.22
2023-10-22T08:52:46.120Z,97708.16
2023-10-22T08:54:50.967Z,97713.06
2023-10-22T08:56:58.737Z,97716.31
2023-10-22T08:59:05.156Z,97717.63
2023-10-22T09:01:09.845Z,97711.94
2023-10-22T09:03:14.681Z,97705.28
2023-10-22T09:05:21.226Z,97700.50
2023-10-22T09:07:40.729Z,97707.75
2023-10-22T09:09:45.390Z,97702.44
2023-10-22T09:12:01.322Z,97704.66
2023-10-22T09:14:23.966Z,97701.00
2023-10-22T09:16:32.463Z,97700.28
2023-10-22T09:18:37.233Z,97693.72
2023-10-22T09:20:39.717Z,97694.66
2023-10-22T09:22:44.453Z,97687.88
2023-10-22T09:24:52.259Z,97689.25
2023-10-22T09:26:59.570Z,97691.06
2023-10-22T09:29:08.979Z,97686.53
2023-10-22T09:31:13.725Z,97686.03
2023-10-22T09:33:20.222Z,97691.59
2023-10-22T09:35:25.204Z,97685.91
2023-10-22T09:37:29.877Z,97686.13
2023-10-22T09:39:39.096Z,97685.53
2023-10-22T09:41:43.916Z,97690.69
2023-10-22T09:43:51.413Z,97686.59
2023-10-22T09:45:53.483Z,97680.44
2023-10-22T09:48:11.491Z,97679.91
2023-10-22T09:50:19.944Z,97699.41
2023-10-22T09:52:25.922Z,97688.41
2023-10-22T09:54:38.238Z,97687.88
2023-10-22T09:56:55.820Z,97683.81
2023-10-22T09:59:06.580Z,97679.72
2023-10-22T10:01:10.609Z,97682.84
2023-10-22T10:03:15.773Z,97694.78
2023-10-22T10:05:22.498Z,97687.25
2023-10-22T10:07:27.523Z,97685.25
2023-10-22T10:09:32.928Z,97696.38
2023-10-22T10:11:38.327Z,97686.28
2023-10-22T10:13:43.480Z,97680.44
2023-10-22T10:15:59.035Z,97686.84
2023-10-22T10:18:05.108Z,97683.78
2023-10-22T10:20:27.357Z,97685.28
2023-10-22T10:22:47.122Z,97681.81
2023-10-22T10:24:52.530Z,97690.91
2023-10-22T10:27:13.157Z,97678.25
2023-10-22T10:29:15.742Z,97689.16
2023-10-22T10:31:35.580Z,97682.44
2023-10-22T10:33:55.291Z,97685.66
2023-10-22T10:36:00.244Z,97683.34
2023-10-22T10:38:17.400Z,97682.44
2023-10-22T10:40:43.432Z,97680.34
2023-10-22T10:42:51.507Z,97685.59
2023-10-22T10:45:11.117Z,97681.94
2023-10-22T10:47:33.429Z,97684.84
2023-10-22T10:49:53.462Z,97688.09
2023-10-22T10:52:06.850Z,97686.72
2023-10-22T10:54:22.932Z,97678.72
2023-10-22T10:56:44.870Z,97684.38
2023-10-22T10:58:49.725Z,97684.00
2023-10-22T11:01:04.532Z,97675.47
2023-10-22T11:03:11.790Z,97676.25
2023-10-22T11:05:14.600Z,97669.53
2023-10-22T11:07:27.422Z,97681.31
2023-10-22T11:09:31.947Z,97684.16
2023-10-22T11:11:36.803Z,97682.81
2023-10-22T11:13:43.013Z,97681.09
2023-10-22T11:15:47.899Z,97686.63
2023-10-22T11:17:52.638Z,97680.97
2023-10-22T11:19:57.564Z,97678.69
2023-10-22T11:21:59.932Z,97677.16
2023-10-22T11:24:07.668Z,97680.94
2023-10-22T11:26:12.423Z,97675.69
2023-10-22T11:28:17.718Z,97680.00
2023-10-22T11:30:40.283Z,97683.13
2023-10-22T11:32:51.065Z,97675.97
2023-10-22T11:34:56.413Z,97672.84
2023-10-22T11:37:01.778Z,97676.06
2023-10-22T11:39:24.297Z,97677.22
2023-10-22T11:41:39.531Z,97675.22
2023-10-22T11:43:44.803Z,97670.09
2023-10-22T11:45:55.963Z,97676.38
2023-10-22T11:48:16.183Z,97675.94
2023-10-22T11:50:20.990Z,97669.84
2023-10-22T11:52:40.775Z,97669.59
2023-10-22T11:54:51.287Z,97671.44
2023-10-22T11:56:55.938Z,97679.03
2023-10-22T11:59:02.429Z,97678.75
2023-10-22T12:01:08.549Z,97682.31
2023-10-22T12:03:13.403Z,97680.66
2023-10-22T12:05:18.129Z,97673.50
2023-10-22T12:07:22.928Z,97678.22
2023-10-22T12:09:27.634Z,97676.81
2023-10-22T12:11:35.027Z,97679.53
2023-10-22T12:13:39.744Z,97673.81
2023-10-22T12:15:44.401Z,97690.56
2023-10-22T12:17:49.196Z,97681.88
2023-10-22T12:19:54.001Z,97686.28
2023-10-22T12:21:58.630Z,97688.06
2023-10-22T12:24:12.690Z,97677.31
2023-10-22T12:26:25.398Z,97683.25
2023-10-22T12:28:32.727Z,97686.22
2023-10-22T12:30:38.038Z,97699.03
2023-10-22T12:32:42.965Z,97689.47
2023-10-22T12:34:47.624Z,97688.16
2023-10-22T12:36:52.352Z,97697.47
2023-10-22T12:38:57.765Z,97690.81
2023-10-22T12:41:05.327Z,97693.19
2023-10-22T12:43:10.077Z,97696.78
2023-10-22T12:45:17.824Z,97698.22
2023-10-22T12:47:22.558Z,97693.00
2023-10-22T12:49:27.259Z,97698.53
2023-10-22T12:51:32.116Z,97698.44
2023-10-22T12:53:36.855Z,97688.03
2023-10-22T12:55:41.505Z,97692.47
2023-10-22T12:57:46.316Z,97702.63
2023-10-22T12:59:50.998Z,97701.56
2023-10-22T13:01:58.258Z,97706.13
2023-10-22T13:04:03.696Z,97704.41
2023-10-22T13:06:09.578Z,97711.25
2023-10-22T13:08:14.818Z,97706.94
2023-10-22T13:10:19.693Z,97714.56
2023-10-22T13:12:21.958Z,97711.34
2023-10-22T13:14:26.612Z,97707.78
2023-10-22T13:16:31.712Z,97714.72
2023-10-22T13:18:38.958Z,97718.06
2023-10-22T13:20:43.761Z,97718.66
2023-10-22T13:22:48.536Z,97721.38
2023-10-22T13:24:54.678Z,97729.97
2023-10-22T13:26:59.377Z,97724.53
2023-10-22T13:29:07.759Z,97731.34
2023-10-22T13:31:14.701Z,97733.66
2023-10-22T13:33:19.620Z,97740.97
2023-10-22T13:35:27.078Z,97737.72
2023-10-22T13:37:32.866Z,97730.47
2023-10-22T13:39:37.683Z,97742.31
2023-10-22T13:41:46.420Z,97741.22
2023-10-22T13:43:51.412Z,97746.97
2023-10-22T13:45:56.155Z,97751.16
2023-10-22T13:48:00.978Z,97755.81
2023-10-22T13:50:03.375Z,97756.03
2023-10-22T13:52:10.848Z,97759.38
2023-10-22T13:54:15.710Z,97761.59
2023-10-22T13:56:20.528Z,97755.41
2023-10-22T13:58:25.346Z,97751.59
2023-10-22T14:00:30.200Z,97752.44
2023-10-22T14:02:33.233Z,97737.75
2023-10-22T14:04:38.162Z,97739.81
2023-10-22T14:06:43.254Z,97742.53
2023-10-22T14:08:50.761Z,97736.84
2023-10-22T14:10:55.472Z,97739.66
2023-10-22T14:13:01.845Z,97740.72
2023-10-22T14:15:06.927Z,97750.47
2023-10-22T14:17:11.689Z,97746.63
2023-10-22T14:19:16.716Z,97750.38
2023-10-22T14:21:20.303Z,97748.66
2023-10-22T14:23:25.046Z,97758.47
2023-10-22T14:25:32.868Z,97755.13
2023-10-22T14:27:38.752Z,97754.50
2023-10-22T14:29:43.600Z,97757.00
2023-10-22T14:31:48.307Z,97750.63
2023-10-22T14:33:53.137Z,97757.41
2023-10-22T14:36:03.996Z,97752.38
2023-10-22T14:38:09.233Z,97752.91
2023-10-22T14:40:14.445Z,97760.91
2023-10-22T14:42:22.222Z,97759.34
2023-10-22T14:44:26.953Z,97767.44
2023-10-22T14:46:31.800Z,97767.97
2023-10-22T14:48:36.865Z,97760.69
2023-10-22T14:50:39.194Z,97755.22
2023-10-22T14:52:43.914Z,97759.50
2023-10-22T14:54:48.596Z,97754.91
2023-10-22T14:56:53.253Z,97757.53
2023-10-22T14:58:57.940Z,97767.75
2023-10-22T15:01:04.192Z,97766.03
2023-10-22T15:03:06.433Z,97768.06
2023-10-22T15:05:12.378Z,97761.16
2023-10-22T15:07:17.264Z,97764.09
2023-10-22T15:09:19.463Z,97766.53
2023-10-22T15:11:24.433Z,97767.38
2023-10-22T15:13:29.233Z,97773.69
2023-10-22T15:15:39.889Z,97767.81
2023-10-22T15:17:44.680Z,97770.75
2023-10-22T15:19:49.494Z,97774.72
2023-10-22T15:21:54.310Z,97781.25
2023-10-22T15:24:01.441Z,97786.63
2023-10-22T15:26:04.002Z,97784.97
2023-10-22T15:28:08.719Z,97788.09
2023-10-22T15:30:14.276Z,97792.50
2023-10-22T15:32:21.510Z,97796.16
2023-10-22T15:34:27.484Z,97799.09
2023-10-22T15:36:32.216Z,97801.03
2023-10-22T15:38:36.888Z,97799.88
2023-10-22T15:40:41.561Z,97799.66
2023-10-22T15:42:46.373Z,97808.56
2023-10-22T15:44:51.333Z,97805.09
2023-10-22T15:46:58.197Z,97817.38
2023-10-22T15:49:05.431Z,97816.44
2023-10-22T15:51:10.352Z,97818.00
2023-10-22T15:53:19.204Z,97817.91
2023-10-22T15:55:24.705Z,97820.31
2023-10-22T15:57:29.527Z,97816.13
2023-10-22T15:59:34.785Z,97824.53
2023-10-22T16:01:39.984Z,97815.81
2023-10-22T16:03:44.867Z,97817.78
2023-10-22T16:05:52.501Z,97815.38
2023-10-22T16:07:57.287Z,97818.13
2023-10-22T16:10:02.487Z,97814.03
2023-10-22T16:12:07.628Z,97815.28
2023-10-22T16:14:12.524Z,97802.50
2023-10-22T16:16:17.970Z,97814.97
2023-10-22T16:18:24.041Z,97814.31
2023-10-22T16:20:29.404Z,97808.56
2023-10-22T16:22:36.642Z,97820.09
2023-10-22T16:24:41.977Z,97821.34
2023-10-22T16:26:44.068Z,97821.78
2023-10-22T16:28:48.750Z,97830.88
2023-10-22T16:30:57.454Z,97833.72
2023-10-22T16:33:02.406Z,97831.09
2023-10-22T16:35:07.968Z,97833.72
2023-10-22T16:37:12.684Z,97831.09
2023-10-22T16:39:21.487Z,97842.28
2023-10-22T16:41:23.557Z,97844.81
2023-10-22T16:43:28.288Z,97843.78
2023-10-22T16:45:30.534Z,97846.19
2023-10-22T16:47:35.339Z,97848.81
2023-10-22T16:49:37.698Z,97851.44
2023-10-22T16:51:42.758Z,97848.19
2023-10-22T16:53:47.545Z,97847.53
2023-10-22T16:55:55.039Z,97852.25
2023-10-22T16:57:59.850Z,97860.59
2023-10-22T17:00:08.011Z,97866.34
2023-10-22T17:02:10.862Z,97867.50
2023-10-22T17:04:16.216Z,97871.97
2023-10-22T17:06:21.116Z,97874.03
2023-10-22T17:08:25.945Z,97876.16
2023-10-22T17:10:31.198Z,97881.94
2023-10-22T17:12:38.738Z,97873.72
2023-10-22T17:14:52.251Z,97890.47
2023-10-22T17:17:00.539Z,97892.88
2023-10-22T17:19:05.386Z,97885.88
2023-10-22T17:21:12.009Z,97896.25
2023-10-22T17:23:14.109Z,97893.44
2023-10-22T17:25:18.990Z,97897.84
2023-10-22T17:27:24.366Z,97899.72
2023-10-22T17:29:32.103Z,97904.19
2023-10-22T17:31:36.750Z,97902.59
2023-10-22T17:34:00.931Z,97903.84
2023-10-22T17:36:06.285Z,97910.28
2023-10-22T17:38:11.074Z,97903.38
2023-10-22T17:40:15.823Z,97913.94
2023-10-22T17:42:20.560Z,97913.03
2023-10-22T17:44:25.248Z,97906.28
2023-10-22T17:46:32.694Z,97914.25
2023-10-22T17:48:37.838Z,97908.44
2023-10-22T17:50:42.697Z,97912.94
2023-10-22T17:52:49.255Z,97913.03
2023-10-22T17:54:54.258Z,97917.44
2023-10-22T17:56:59.240Z,97915.00
2023-10-22T17:59:04.090Z,97920.44
2023-10-22T18:01:09.146Z,97925.94
2023-10-22T18:03:14.084Z,97926.97
2023-10-22T18:05:19.043Z,97927.91
2023-10-22T18:07:27.212Z,97922.75
2023-10-22T18:09:32.241Z,97929.00
2023-10-22T18:11:39.376Z,97934.44
2023-10-22T18:13:44.279Z,97940.78
2023-10-22T18:15:49.074Z,97944.88
2023-10-22T18:17:54.135Z,97943.75
2023-10-22T18:20:02.104Z,97951.22
2023-10-22T18:22:07.352Z,97953.34
2023-10-22T18:24:14.057Z,97958.59
2023-10-22T18:26:19.035Z,97955.03
2023-10-22T18:28:23.855Z,97954.13
2023-10-22T18:30:28.921Z,97952.16
2023-10-22T18:32:33.708Z,97959.72
2023-10-22T18:34:39.130Z,97954.28
2023-10-22T18:36:46.952Z,97947.97
2023-10-22T18:38:50.439Z,97952.00
2023-10-22T18:40:55.255Z,97957.03
2023-10-22T18:43:01.061Z,97955.44
2023-10-22T18:45:06.028Z,97959.25
2023-10-22T18:47:13.044Z,97960.09
2023-10-22T18:49:20.915Z,97958.44
2023-10-22T18:51:26.529Z,97959.53
2023-10-22T18:53:36.625Z,97961.66
2023-10-22T18:55:42.481Z,97962.69
2023-10-22T18:57:49.254Z,97968.28
2023-10-22T18:59:56.548Z,97972.84
2023-10-22T19:02:03.948Z,97979.16
2023-10-22T19:04:09.187Z,97987.53
2023-10-22T19:06:15.621Z,97991.31
2023-10-22T19:08:18.148Z,97988.97
2023-10-22T19:10:34.413Z,97985.72
2023-10-22T19:12:42.264Z,97997.06
2023-10-22T19:14:47.271Z,97995.41
2023-10-22T19:16:56.410Z,97991.78
2023-10-22T19:19:02.634Z,97992.59
2023-10-22T19:21:08.877Z,97991.84
2023-10-22T19:23:23.155Z,97995.91
2023-10-22T19:25:31.163Z,97990.09
2023-10-22T19:27:39.221Z,97998.94
2023-10-22T19:29:44.700Z,97999.97
2023-10-22T19:31:49.513Z,98001.81
2023-10-22T19:33:55.415Z,98011.41
2023-10-22T19:36:00.882Z,98008.91
2023-10-22T19:38:06.498Z,98006.28
2023-10-22T19:40:09.953Z,98015.91
2023-10-22T19:42:17.846Z,98009.81
2023-10-22T19:44:23.278Z,98006.63
2023-10-22T19:46:29.184Z,98013.03
2023-10-22T19:48:36.387Z,98020.34
2023-10-22T19:50:41.144Z,98022.38
2023-10-22T19:52:45.926Z,98025.16
2023-10-22T19:54:50.697Z,98028.69
2023-10-22T19:57:01.284Z,98031.28
2023-10-22T19:59:08.703Z,98027.00
2023-10-22T20:01:23.422Z,98029.69
2023-10-22T20:03:29.549Z,98025.50
2023-10-22T20:05:36.578Z,98030.63
2023-10-22T20:07:41.263Z,98032.28
2023-10-22T20:09:46.189Z,98028.94
2023-10-22T20:11:51.071Z,98028.94
2023-10-22T20:13:53.277Z,98027.16
2023-10-22T20:16:00.969Z,98034.06
2023-10-22T20:18:03.236Z,98035.84
2023-10-22T20:20:08.610Z,98029.78
2023-10-22T20:22:14.374Z,98034.16
2023-10-22T20:24:16.764Z,98039.38
2023-10-22T20:26:22.387Z,98027.16
2023-10-22T20:28:27.195Z,98031.78
2023-10-22T20:30:32.074Z,98034.66
2023-10-22T20:32:39.876Z,98035.50
2023-10-22T20:34:44.652Z,98037.28
2023-10-22T20:36:49.637Z,98032.06
2023-10-22T20:38:54.504Z,98031.19
2023-10-22T20:41:03.002Z,98043.34
2023-10-22T20:43:07.803Z,98037.34
2023-10-22T20:45:12.957Z,98039.94
2023-10-22T20:47:17.725Z,98043.50
2023-10-22T20:49:25.550Z,98040.78
2023-10-22T20:51:30.456Z,98051.31
2023-10-22T20:53:32.840Z,98043.56
2023-10-22T20:55:40.854Z,98046.19
2023-10-22T20:57:45.760Z,98043.56
2023-10-22T20:59:48.302Z,98047.00
2023-10-22T21:01:54.431Z,98043.72
2023-10-22T21:03:59.797Z,98045.56
2023-10-22T21:06:04.731Z,98047.34
2023-10-22T21:08:09.629Z,98040.44
2023-10-22T21:10:14.292Z,98044.66
2023-10-22T21:12:19.043Z,98039.44
2023-10-22T21:14:23.862Z,98045.50
2023-10-22T21:16:28.631Z,98041.22
2023-10-22T21:18:33.426Z,98046.44
2023-10-22T21:20:38.369Z,98045.66
2023-10-22T21:22:46.059Z,98048.34
2023-10-22T21:24:51.024Z,98048.50
2023-10-22T21:26:55.863Z,98048.59
2023-10-22T21:29:00.752Z,98043.44
2023-10-22T21:31:08.301Z,98045.22
2023-10-22T21:33:13.806Z,98050.00
2023-10-22T21:35:18.866Z,98049.38
2023-10-22T21:37:23.614Z,98044.88
2023-10-22T21:39:31.186Z,98050.16
2023-10-22T21:41:35.934Z,98040.53
2023-10-22T21:43:40.671Z,98043.25
2023-10-22T21:45:46.267Z,98046.63
2023-10-22T21:47:51.023Z,98045.59
2023-10-22T21:49:55.736Z,98042.94
2023-10-22T21:52:00.429Z,98042.78
2023-10-22T21:54:05.125Z,98040.94
2023-10-22T21:56:12.535Z,98039.94
2023-10-22T21:58:14.685Z,98050.22
2023-10-22T22:00:20.946Z,98051.03
2023-10-22T22:02:25.986Z,98049.34
2023-10-22T22:04:31.007Z,98054.72
2023-10-22T22:06:36.084Z,98054.88
2023-10-22T22:08:41.074Z,98052.53
2023-10-22T22:10:45.979Z,98051.84
2023-10-22T22:12:53.800Z,98056.53
2023-10-22T22:14:58.551Z,98059.38
2023-10-22T22:17:04.540Z,98057.69
2023-10-22T22:19:09.263Z,98061.22
2023-10-22T22:21:13.908Z,98054.22
2023-10-22T22:23:19.128Z,98057.00
2023-10-22T22:25:29.770Z,98050.94
2023-10-22T22:27:38.299Z,98061.38
2023-10-22T22:29:45.862Z,98061.44
2023-10-22T22:31:50.879Z,98059.00
2023-10-22T22:33:55.625Z,98055.78
2023-10-22T22:36:00.438Z,98050.78
2023-10-22T22:38:05.152Z,98058.66
2023-10-22T22:40:10.912Z,98049.25
2023-10-22T22:42:15.760Z,98060.72
2023-10-22T22:44:17.880Z,98052.13
2023-10-22T22:46:27.428Z,98060.13
2023-10-22T22:48:33.881Z,98057.50
2023-10-22T22:50:38.874Z,98058.38
2023-10-22T22:52:43.760Z,98061.72
2023-10-22T22:54:48.607Z,98059.22
2023-10-22T22:56:53.493Z,98068.88
2023-10-22T22:58:58.266Z,98061.81
2023-10-22T23:01:03.465Z,98058.06
2023-10-22T23:03:09.250Z,98051.84
2023-10-22T23:05:14.387Z,98049.25
2023-10-22T23:07:19.245Z,98051.84
2023-10-22T23:09:23.930Z,98046.63
2023-10-22T23:11:28.850Z,98043.25
2023-10-22T23:13:33.877Z,98047.84
2023-10-22T23:15:38.727Z,98045.19
2023-10-22T23:17:43.495Z,98041.69
2023-10-22T23:19:50.926Z,98048.53
2023-10-22T23:21:55.714Z,98050.16
2023-10-22T23:23:57.764Z,98048.47
2023-10-22T23:26:02.591Z,98047.63
2023-10-22T23:28:07.607Z,98046.78
2023-10-22T23:30:13.560Z,98050.31
2023-10-22T23:32:18.725Z,98055.59
2023-10-22T23:34:23.612Z,98055.69
2023-10-22T23:36:31.347Z,98057.44
2023-10-22T23:38:36.338Z,98058.38
2023-10-22T23:40:41.021Z,98053.38
2023-10-22T23:42:45.711Z,98059.59
2023-10-22T23:44:51.090Z,98058.22
2023-10-22T23:46:56.085Z,98060.97
2023-10-22T23:49:00.900Z,98061.13
2023-10-22T23:51:05.934Z,98063.94
2023-10-22T23:53:13.423Z,98059.81
2023-10-22T23:55:18.324Z,98061.63
2023-10-22T23:57:23.074Z,98063.56
2023-10-22T23:59:28.046Z,98058.56
